首页
METAR-TAF:

METAR-TAF

机场 :

太原武宿国际机场

太原, 中华人民共和国

纬度: 37-47N, 经度: 112-33E, 海拔: 779米

当前天气观测

该预报发布于28分钟前的16:00 UTC
风速4节,风向东转东北,在之间变化
温度 -2°C
湿度 33%
气压 1028 hPa
能见度10公里或以上
1500米以下无云,无积雨云

METAR: ZBYN 201600Z 06002MPS 010V090 CAVOK M02/M16 Q1028 NOSIG

时间: 00:28 (16:28 UTC)

预报

该预报发布于7小时和20分钟前的09:08 UTC
预报有效从20日的 12点(UTC)到 21日的 12点(UTC)
风速8节,风向
能見度: 5000

TAF: ZBYN 200908Z 2012/2112 09004MPS 5000 HZ NSC TX09/2107Z TNM07/22Z

超过4000个机场的气象观测和天气预报(METAR&TAF报告)。

可查询的气象台以黄色和红色小点在地图上表示。

将鼠标移到小点上方,可查看气象台名称。

然后点击查看天气观测和预报。

如需切换地图:点击带黑十字的绿色按钮放大地图;点击带横线的绿色按钮缩小地图;或者点击绿色箭头查看邻近地区的地图。


METAR-TAF: